Time;durP1;ratioP1;P1;durP2;ratioP2;P2;SDS_P1;SDS_P2;PMS_P1;PMS_P2;Temp;Humidity;BMP_temperature;BMP_pressure;BME280_temperature;BME280_humidity;BME280_pressure;Samples;Min_cycle;Max_cycle;Signal;HPM_P1;HPM_P2
2023/04/28 00:00:53;;;;;;;0.70;0.70;;;9.20;97.70;;;;;;5028323;28;20022;-82
2023/04/28 00:03:18;;;;;;;0.80;0.80;;;9.20;97.70;;;;;;5010527;28;20533;-82
2023/04/28 00:05:45;;;;;;;0.80;0.80;;;9.20;97.80;;;;;;5024923;28;20033;-81
2023/04/28 00:08:11;;;;;;;0.68;0.68;;;9.20;97.70;;;;;;5005540;28;20418;-82
2023/04/28 00:10:36;;;;;;;0.80;0.63;;;9.20;97.70;;;;;;5022364;28;20064;-78
2023/04/28 00:13:02;;;;;;;0.70;0.70;;;9.30;97.70;;;;;;5036304;28;20026;-81
2023/04/28 00:15:28;;;;;;;0.65;0.65;;;9.30;97.70;;;;;;5004857;28;20022;-80
2023/04/28 00:17:54;;;;;;;0.60;0.60;;;9.40;97.70;;;;;;5017760;28;20045;-81
2023/04/28 00:20:20;;;;;;;0.95;0.90;;;9.40;97.50;;;;;;5031445;28;20383;-82
2023/04/28 00:22:45;;;;;;;0.70;0.70;;;9.40;97.50;;;;;;5006974;28;20503;-81
2023/04/28 00:25:11;;;;;;;0.73;0.73;;;9.40;97.50;;;;;;5022526;28;20084;-83
2023/04/28 00:27:37;;;;;;;0.52;0.52;;;9.40;97.40;;;;;;5021803;28;20097;-81
2023/04/28 00:30:03;;;;;;;0.90;0.70;;;9.40;97.40;;;;;;5019187;28;20040;-81
2023/04/28 00:32:28;;;;;;;0.80;0.55;;;9.40;97.50;;;;;;5002312;28;20551;-82
2023/04/28 00:34:55;;;;;;;0.70;0.70;;;9.40;97.50;;;;;;5003870;28;20045;-82
2023/04/28 00:37:21;;;;;;;0.73;0.60;;;9.50;97.40;;;;;;5029497;28;20038;-84
2023/04/28 00:39:47;;;;;;;0.60;0.60;;;9.50;97.20;;;;;;5025832;28;20053;-79
2023/04/28 00:42:13;;;;;;;1.35;0.50;;;9.50;97.20;;;;;;5026759;28;20030;-81
2023/04/28 00:44:40;;;;;;;0.63;0.60;;;9.50;97.10;;;;;;5023911;28;20018;-82
2023/04/28 00:47:07;;;;;;;0.80;0.60;;;9.50;97.10;;;;;;5028187;28;20022;-82
2023/04/28 00:49:34;;;;;;;0.50;0.50;;;9.50;97.10;;;;;;5026899;28;20044;-81
2023/04/28 00:52:05;;;;;;;0.75;0.75;;;9.50;97.10;;;;;;5010932;28;20049;-80
2023/04/28 00:54:33;;;;;;;0.80;0.50;;;9.50;97.10;;;;;;5027724;28;20044;-82
2023/04/28 00:57:01;;;;;;;0.43;0.43;;;9.50;97.10;;;;;;5027268;28;20174;-81
2023/04/28 00:59:28;;;;;;;0.45;0.40;;;9.50;97.10;;;;;;5027441;28;20084;-82
2023/04/28 01:01:55;;;;;;;0.50;0.50;;;9.50;97.10;;;;;;5009342;28;20026;-80
2023/04/28 01:04:21;;;;;;;0.50;0.50;;;9.50;97.20;;;;;;5026260;28;20030;-83
2023/04/28 01:06:51;;;;;;;0.75;0.40;;;9.50;97.20;;;;;;5024380;28;20026;-82
2023/04/28 01:09:17;;;;;;;0.60;0.60;;;9.50;97.30;;;;;;5026196;28;20021;-81
2023/04/28 01:11:42;;;;;;;1.13;0.60;;;9.50;97.10;;;;;;5006817;28;20033;-81
2023/04/28 01:14:08;;;;;;;0.80;0.57;;;9.50;97.20;;;;;;5003541;28;20025;-80
2023/04/28 01:16:36;;;;;;;0.40;0.40;;;9.50;97.10;;;;;;5022290;28;20112;-82
2023/04/28 01:19:02;;;;;;;0.50;0.50;;;9.40;97.10;;;;;;5023529;28;20033;-81
2023/04/28 01:21:31;;;;;;;0.60;0.60;;;9.40;97.20;;;;;;5006521;28;20057;-82
2023/04/28 01:23:57;;;;;;;0.57;0.57;;;9.40;97.20;;;;;;5006966;28;20034;-81
2023/04/28 01:26:23;;;;;;;0.30;0.30;;;9.40;97.30;;;;;;5007490;28;20029;-80
2023/04/28 01:28:49;;;;;;;0.50;0.35;;;9.40;97.30;;;;;;5024673;28;20211;-80
2023/04/28 01:31:15;;;;;;;0.50;0.50;;;9.40;97.40;;;;;;5023629;28;20026;-80
2023/04/28 01:33:41;;;;;;;0.40;0.40;;;9.40;97.50;;;;;;5025559;28;20022;-81
2023/04/28 01:36:07;;;;;;;0.40;0.40;;;9.40;97.40;;;;;;5027288;28;20052;-81
2023/04/28 01:38:33;;;;;;;0.82;0.63;;;9.40;97.50;;;;;;5027732;28;20045;-82
2023/04/28 01:40:59;;;;;;;0.30;0.30;;;9.40;97.50;;;;;;5028148;28;20034;-80
2023/04/28 01:43:25;;;;;;;0.40;0.40;;;9.50;97.60;;;;;;5022027;28;20025;-81
2023/04/28 01:45:50;;;;;;;0.47;0.30;;;9.50;97.60;;;;;;5019926;28;20025;-80
2023/04/28 01:48:16;;;;;;;0.40;0.40;;;9.50;97.60;;;;;;5020918;28;20240;-81
2023/04/28 01:50:42;;;;;;;0.55;0.50;;;9.50;97.60;;;;;;5020599;28;20061;-81
2023/04/28 01:53:07;;;;;;;0.20;0.20;;;9.50;97.60;;;;;;5019897;28;20087;-81
2023/04/28 01:55:33;;;;;;;0.30;0.30;;;9.60;97.60;;;;;;5019967;28;20321;-81
2023/04/28 01:57:59;;;;;;;0.40;0.40;;;9.60;97.50;;;;;;5019918;28;20073;-81
2023/04/28 02:00:26;;;;;;;0.38;0.38;;;9.60;97.50;;;;;;5020029;28;20025;-79
2023/04/28 02:02:51;;;;;;;0.22;0.22;;;9.60;97.40;;;;;;5030272;28;20018;-80
2023/04/28 02:05:17;;;;;;;0.40;0.38;;;9.60;97.50;;;;;;5030450;28;20390;-79
2023/04/28 02:07:43;;;;;;;0.40;0.40;;;9.60;97.50;;;;;;5021603;28;20065;-81
2023/04/28 02:10:09;;;;;;;0.30;0.30;;;9.60;97.40;;;;;;5018229;28;20481;-80
2023/04/28 02:12:35;;;;;;;0.13;0.13;;;9.60;97.40;;;;;;5017723;28;20149;-79
2023/04/28 02:15:00;;;;;;;0.63;0.63;;;9.70;97.40;;;;;;5018107;28;20149;-80
2023/04/28 02:17:29;;;;;;;0.47;0.47;;;9.60;97.40;;;;;;5023937;28;20037;-81
2023/04/28 02:19:55;;;;;;;0.20;0.20;;;9.70;97.30;;;;;;5018282;28;20033;-80
2023/04/28 02:22:21;;;;;;;0.30;0.30;;;9.70;97.30;;;;;;5015585;28;20034;-81
2023/04/28 02:24:47;;;;;;;0.30;0.30;;;9.70;97.30;;;;;;5003072;28;20029;-81
2023/04/28 02:27:13;;;;;;;0.20;0.20;;;9.70;97.30;;;;;;5019471;28;20121;-80
2023/04/28 02:29:39;;;;;;;0.32;0.32;;;9.80;97.60;;;;;;5019307;28;20017;-80
2023/04/28 02:32:05;;;;;;;0.30;0.30;;;9.80;97.20;;;;;;5025035;28;20022;-79
2023/04/28 02:34:30;;;;;;;0.40;0.40;;;9.90;97.20;;;;;;5026701;28;20076;-81
2023/04/28 02:36:56;;;;;;;0.50;0.50;;;9.90;97.20;;;;;;5001485;28;20049;-81
2023/04/28 02:39:24;;;;;;;0.57;0.20;;;9.80;97.30;;;;;;5017231;28;20045;-81
2023/04/28 02:41:51;;;;;;;0.20;0.20;;;9.80;97.40;;;;;;5023718;28;20085;-78
2023/04/28 02:44:16;;;;;;;0.22;0.22;;;9.80;97.90;;;;;;5011832;28;20034;-81
2023/04/28 02:46:42;;;;;;;0.30;0.30;;;9.80;97.80;;;;;;5012049;28;20110;-81
2023/04/28 02:49:08;;;;;;;0.30;0.30;;;9.80;98.00;;;;;;5030540;28;20026;-81
2023/04/28 02:51:33;;;;;;;0.20;0.20;;;9.80;98.10;;;;;;5029501;28;20049;-80
2023/04/28 02:54:00;;;;;;;0.40;0.40;;;9.80;98.20;;;;;;5006298;28;20098;-80
2023/04/28 02:56:25;;;;;;;0.43;0.43;;;9.80;98.30;;;;;;5002973;28;20427;-81
2023/04/28 02:58:51;;;;;;;1.73;0.40;;;9.80;98.30;;;;;;5019642;28;20017;-77
2023/04/28 03:01:17;;;;;;;0.50;0.50;;;9.70;98.40;;;;;;5019624;28;20022;-78
2023/04/28 03:03:43;;;;;;;0.50;0.50;;;9.60;98.70;;;;;;5035971;28;20049;-77
2023/04/28 03:06:08;;;;;;;0.77;0.60;;;9.60;99.10;;;;;;5038114;28;20033;-77
2023/04/28 03:08:34;;;;;;;0.70;0.60;;;9.60;99.30;;;;;;5038467;28;20025;-77
2023/04/28 03:11:00;;;;;;;0.60;0.60;;;9.60;99.50;;;;;;5038109;28;20030;-75
2023/04/28 03:13:26;;;;;;;0.47;0.45;;;9.60;99.70;;;;;;5035736;28;20025;-82
2023/04/28 03:15:51;;;;;;;0.40;0.40;;;9.60;99.80;;;;;;5020094;28;20756;-80
2023/04/28 03:18:17;;;;;;;0.63;0.45;;;9.70;99.90;;;;;;5018866;28;20152;-81
2023/04/28 03:20:43;;;;;;;0.73;0.40;;;9.70;99.90;;;;;;5021658;28;20129;-80
2023/04/28 03:23:09;;;;;;;0.20;0.20;;;9.70;99.90;;;;;;5034150;28;20031;-82
2023/04/28 03:25:35;;;;;;;0.30;0.30;;;9.80;99.90;;;;;;5032959;28;20026;-80
2023/04/28 03:28:00;;;;;;;0.32;0.32;;;9.80;99.90;;;;;;5017059;28;20059;-81
2023/04/28 03:30:26;;;;;;;0.30;0.30;;;9.80;99.90;;;;;;5008163;28;20030;-81
2023/04/28 03:32:52;;;;;;;0.40;0.35;;;9.80;99.90;;;;;;5028939;28;20026;-81
2023/04/28 03:35:17;;;;;;;0.65;0.50;;;9.80;99.90;;;;;;5030958;28;20022;-82
2023/04/28 03:37:43;;;;;;;0.32;0.30;;;9.80;99.90;;;;;;5031464;28;20022;-79
2023/04/28 03:40:09;;;;;;;0.65;0.50;;;9.80;99.90;;;;;;5009871;28;20022;-82
2023/04/28 03:42:35;;;;;;;0.40;0.40;;;9.70;99.90;;;;;;5026663;28;20026;-80
2023/04/28 03:45:01;;;;;;;0.40;0.40;;;9.70;99.90;;;;;;5020570;28;20065;-81
2023/04/28 03:47:27;;;;;;;0.40;0.40;;;9.60;99.90;;;;;;5000084;28;20455;-82
2023/04/28 03:49:53;;;;;;;0.47;0.47;;;9.60;99.90;;;;;;5022048;28;20037;-80
2023/04/28 03:52:18;;;;;;;0.52;0.50;;;9.60;99.90;;;;;;5018095;28;20026;-82
2023/04/28 03:54:44;;;;;;;0.50;0.50;;;9.60;99.90;;;;;;5017730;28;20026;-80
2023/04/28 03:57:11;;;;;;;0.35;0.32;;;9.60;99.90;;;;;;5006967;28;20032;-79
2023/04/28 03:59:36;;;;;;;0.40;0.35;;;9.60;99.90;;;;;;5008027;28;20030;-80
2023/04/28 04:02:02;;;;;;;0.40;0.40;;;9.70;99.90;;;;;;5016238;28;20022;-81
2023/04/28 04:04:28;;;;;;;0.50;0.50;;;9.70;99.90;;;;;;4998303;28;20061;-79
2023/04/28 04:06:54;;;;;;;0.50;0.50;;;9.70;99.90;;;;;;5017252;28;20037;-79
2023/04/28 04:09:19;;;;;;;0.77;0.50;;;9.80;99.90;;;;;;5017065;28;20549;-80
2023/04/28 04:11:45;;;;;;;0.32;0.32;;;9.80;99.90;;;;;;5000269;28;20034;-78
2023/04/28 04:14:11;;;;;;;0.43;0.43;;;9.80;99.90;;;;;;5017170;28;20018;-80
2023/04/28 04:16:37;;;;;;;0.40;0.40;;;9.90;99.90;;;;;;5017067;28;20034;-79
2023/04/28 04:19:02;;;;;;;0.40;0.40;;;9.90;99.90;;;;;;5018289;28;20037;-81
2023/04/28 04:21:28;;;;;;;0.50;0.50;;;9.90;99.90;;;;;;5016938;28;20026;-79
2023/04/28 04:23:54;;;;;;;0.65;0.65;;;10.00;99.90;;;;;;5016170;28;20028;-79
2023/04/28 04:26:20;;;;;;;0.45;0.45;;;10.00;99.90;;;;;;5015602;28;20048;-79
2023/04/28 04:28:45;;;;;;;0.40;0.40;;;10.00;99.90;;;;;;4997311;28;20025;-79
2023/04/28 04:31:11;;;;;;;0.40;0.40;;;10.00;99.90;;;;;;4997380;28;20109;-79
2023/04/28 04:33:37;;;;;;;1.35;1.10;;;9.90;99.90;;;;;;4999549;28;20076;-78
2023/04/28 04:36:03;;;;;;;0.80;0.80;;;9.90;99.90;;;;;;5011455;28;20026;-78
2023/04/28 04:38:29;;;;;;;1.25;1.00;;;9.80;99.90;;;;;;5030942;28;20006;-80
2023/04/28 04:40:56;;;;;;;0.90;0.80;;;9.80;99.90;;;;;;5030421;28;20022;-79
2023/04/28 04:43:21;;;;;;;0.70;0.70;;;9.70;99.90;;;;;;5029707;28;20085;-78
2023/04/28 04:45:47;;;;;;;0.95;0.82;;;9.70;99.90;;;;;;5029680;28;20037;-79
2023/04/28 04:48:13;;;;;;;1.33;0.90;;;9.70;99.90;;;;;;5029594;28;20040;-78
2023/04/28 04:50:40;;;;;;;1.23;0.88;;;9.70;99.90;;;;;;5008661;28;20053;-81
2023/04/28 04:53:05;;;;;;;1.23;1.13;;;9.70;99.90;;;;;;5020742;28;20479;-81
2023/04/28 04:55:31;;;;;;;0.73;0.73;;;9.70;99.90;;;;;;5020317;28;20026;-80
2023/04/28 04:57:57;;;;;;;1.00;1.00;;;9.70;99.90;;;;;;5019401;28;20029;-81
2023/04/28 05:00:23;;;;;;;0.65;0.65;;;9.70;99.90;;;;;;4999783;28;20026;-79
2023/04/28 05:02:48;;;;;;;0.85;0.77;;;9.80;99.90;;;;;;5018409;28;20129;-79
2023/04/28 05:05:14;;;;;;;0.60;0.60;;;9.80;99.90;;;;;;5009738;28;20149;-78
2023/04/28 05:07:40;;;;;;;0.63;0.63;;;9.80;99.90;;;;;;5008812;28;20100;-82
2023/04/28 05:10:06;;;;;;;0.77;0.73;;;9.90;99.90;;;;;;5015957;28;20080;-83
2023/04/28 05:12:32;;;;;;;0.50;0.50;;;9.90;99.90;;;;;;4999443;28;20034;-81
2023/04/28 05:14:58;;;;;;;0.57;0.57;;;10.00;99.90;;;;;;5017543;28;20037;-83
2023/04/28 05:17:23;;;;;;;0.63;0.63;;;10.10;99.90;;;;;;4999943;28;20030;-81
2023/04/28 05:19:49;;;;;;;0.50;0.50;;;10.10;99.90;;;;;;5016123;28;20030;-82
2023/04/28 05:22:16;;;;;;;0.30;0.30;;;10.20;99.90;;;;;;5016092;28;20548;-82
2023/04/28 05:24:44;;;;;;;0.43;0.43;;;10.20;99.90;;;;;;5018874;28;20072;-82
2023/04/28 05:27:09;;;;;;;0.40;0.40;;;10.20;99.90;;;;;;5021138;28;20057;-81
2023/04/28 05:29:35;;;;;;;0.40;0.40;;;10.20;99.90;;;;;;5021764;28;20026;-83
2023/04/28 05:32:01;;;;;;;0.38;0.38;;;10.30;99.90;;;;;;5021026;28;20084;-83
2023/04/28 05:34:27;;;;;;;0.47;0.40;;;10.30;99.90;;;;;;5019823;28;20032;-82
2023/04/28 05:36:53;;;;;;;0.43;0.43;;;10.30;99.90;;;;;;5003131;28;20113;-81
2023/04/28 05:39:18;;;;;;;0.30;0.30;;;10.30;99.90;;;;;;5019558;28;20033;-82
2023/04/28 05:41:44;;;;;;;0.30;0.30;;;10.40;99.90;;;;;;5021159;28;20030;-83
2023/04/28 05:44:10;;;;;;;0.47;0.32;;;10.40;99.90;;;;;;5002899;28;20022;-82
2023/04/28 05:46:36;;;;;;;0.30;0.30;;;10.50;99.90;;;;;;5019730;28;20386;-83
2023/04/28 05:49:02;;;;;;;0.45;0.43;;;10.50;99.90;;;;;;5020992;28;20157;-82
2023/04/28 05:51:27;;;;;;;0.35;0.35;;;10.50;99.90;;;;;;5021870;28;20482;-82
2023/04/28 05:53:56;;;;;;;0.20;0.20;;;10.50;99.90;;;;;;5022549;28;20056;-81
2023/04/28 05:56:22;;;;;;;0.43;0.40;;;10.60;99.90;;;;;;5020926;28;20048;-82
2023/04/28 05:58:49;;;;;;;0.55;0.55;;;10.60;99.90;;;;;;4998242;28;20033;-83
2023/04/28 06:01:15;;;;;;;0.25;0.25;;;10.60;99.90;;;;;;5003068;28;20030;-83
2023/04/28 06:03:41;;;;;;;0.40;0.40;;;10.60;99.90;;;;;;5003067;28;20109;-82
2023/04/28 06:06:08;;;;;;;0.75;0.70;;;10.60;99.90;;;;;;5020084;28;20107;-83
2023/04/28 06:08:39;;;;;;;0.43;0.43;;;10.70;99.90;;;;;;5019993;28;20432;-82
2023/04/28 06:11:05;;;;;;;0.82;0.40;;;10.60;99.90;;;;;;5002691;28;20036;-83
2023/04/28 06:13:31;;;;;;;1.85;0.95;;;10.60;99.90;;;;;;5002822;28;20036;-81
2023/04/28 06:15:57;;;;;;;1.10;1.00;;;10.50;99.90;;;;;;5003652;28;20097;-82
2023/04/28 06:18:23;;;;;;;1.20;0.90;;;10.60;99.90;;;;;;5059684;23;20045;-77
2023/04/28 06:20:49;;;;;;;0.80;0.80;;;10.60;99.90;;;;;;5056010;28;20043;-78
2023/04/28 06:23:15;;;;;;;0.45;0.45;;;10.60;99.90;;;;;;5037838;28;20022;-78
2023/04/28 06:25:40;;;;;;;0.63;0.63;;;10.60;99.90;;;;;;5021059;28;20018;-76
2023/04/28 06:28:06;;;;;;;0.60;0.60;;;10.60;99.90;;;;;;5039288;28;20160;-78
2023/04/28 06:30:33;;;;;;;0.63;0.55;;;10.70;99.90;;;;;;5056036;28;20507;-78
2023/04/28 06:32:59;;;;;;;0.40;0.40;;;10.70;99.90;;;;;;5056766;28;20081;-78
2023/04/28 06:35:25;;;;;;;0.50;0.50;;;10.80;99.90;;;;;;5053770;28;20018;-78
2023/04/28 06:37:50;;;;;;;0.60;0.60;;;10.90;99.90;;;;;;5057043;28;20044;-79
2023/04/28 06:40:16;;;;;;;0.50;0.50;;;11.00;99.90;;;;;;5057318;28;20020;-77
2023/04/28 06:42:42;;;;;;;0.60;0.60;;;11.10;99.90;;;;;;5039667;28;20026;-78
2023/04/28 06:45:08;;;;;;;0.73;0.68;;;11.20;99.90;;;;;;5056538;28;20021;-77
2023/04/28 06:47:36;;;;;;;0.90;0.65;;;11.40;99.90;;;;;;5057256;28;20022;-79
2023/04/28 06:50:01;;;;;;;0.60;0.60;;;11.40;99.90;;;;;;5054711;28;20026;-78
2023/04/28 06:52:28;;;;;;;1.02;0.40;;;11.60;99.90;;;;;;5052988;28;20025;-79
2023/04/28 06:54:54;;;;;;;0.65;0.50;;;11.80;99.90;;;;;;5039436;28;20083;-78
2023/04/28 06:57:20;;;;;;;1.15;0.50;;;12.10;99.90;;;;;;5057264;28;20025;-78
2023/04/28 06:59:46;;;;;;;0.82;0.47;;;12.50;99.90;;;;;;5057218;28;20030;-79
2023/04/28 07:02:12;;;;;;;0.40;0.40;;;12.90;99.90;;;;;;5056885;28;20041;-77
2023/04/28 07:04:37;;;;;;;1.33;0.50;;;13.30;99.50;;;;;;5050657;28;20052;-78
2023/04/28 07:07:07;;;;;;;0.43;0.40;;;13.70;98.40;;;;;;5028206;28;20025;-77
2023/04/28 07:09:36;;;;;;;0.32;0.32;;;13.80;97.30;;;;;;5044813;28;20022;-77
2023/04/28 07:12:03;;;;;;;0.50;0.47;;;13.80;97.10;;;;;;5042744;28;20029;-76
2023/04/28 07:14:28;;;;;;;0.65;0.43;;;13.80;96.90;;;;;;5042302;28;20094;-78
2023/04/28 07:16:54;;;;;;;0.77;0.70;;;13.80;96.70;;;;;;5028606;28;20045;-78
2023/04/28 07:19:20;;;;;;;1.45;0.60;;;13.70;96.60;;;;;;5044242;28;20098;-78
2023/04/28 07:21:45;;;;;;;0.98;0.88;;;13.70;96.40;;;;;;5027847;28;20089;-77
2023/04/28 07:24:11;;;;;;;0.60;0.60;;;13.60;96.30;;;;;;5044122;28;20265;-78
2023/04/28 07:26:37;;;;;;;0.75;0.55;;;13.70;96.30;;;;;;5030596;28;20080;-78
2023/04/28 07:29:03;;;;;;;0.40;0.40;;;13.60;96.20;;;;;;5044020;28;20048;-78
2023/04/28 07:31:28;;;;;;;0.52;0.47;;;13.60;96.00;;;;;;5052690;28;20028;-79
2023/04/28 07:33:54;;;;;;;0.68;0.68;;;13.60;95.80;;;;;;5045798;28;20029;-78
2023/04/28 07:36:21;;;;;;;1.02;0.80;;;13.50;95.80;;;;;;5045809;28;20029;-78
2023/04/28 07:38:46;;;;;;;2.45;1.00;;;13.40;95.90;;;;;;5043488;28;20026;-78
2023/04/28 07:41:12;;;;;;;0.73;0.73;;;13.30;96.00;;;;;;5048735;28;20036;-77
2023/04/28 07:43:39;;;;;;;0.93;0.82;;;13.20;96.30;;;;;;5032463;28;20029;-77
2023/04/28 07:46:07;;;;;;;0.70;0.55;;;13.10;96.80;;;;;;5030714;28;20037;-78
2023/04/28 07:48:33;;;;;;;1.00;0.60;;;13.20;96.80;;;;;;5050262;28;20022;-78
2023/04/28 07:50:59;;;;;;;0.63;0.63;;;13.20;96.90;;;;;;5026815;28;20112;-78
2023/04/28 07:53:24;;;;;;;0.77;0.65;;;13.30;96.90;;;;;;5010503;28;20497;-77
2023/04/28 07:55:50;;;;;;;0.60;0.60;;;13.30;96.80;;;;;;5040397;28;20025;-77
2023/04/28 07:58:16;;;;;;;0.85;0.70;;;13.30;96.80;;;;;;5037991;28;20025;-77
2023/04/28 08:00:41;;;;;;;0.77;0.77;;;13.20;96.80;;;;;;5020598;28;20083;-77
2023/04/28 08:03:07;;;;;;;0.75;0.70;;;13.20;96.80;;;;;;5004190;28;20084;-77
2023/04/28 08:05:33;;;;;;;1.08;0.82;;;13.20;96.80;;;;;;5016813;28;20021;-78
2023/04/28 08:07:59;;;;;;;0.50;0.50;;;13.10;96.80;;;;;;5017659;28;20040;-77
2023/04/28 08:10:25;;;;;;;0.50;0.50;;;13.10;97.00;;;;;;5018102;28;20028;-77
2023/04/28 08:12:51;;;;;;;0.60;0.60;;;13.00;97.20;;;;;;5016195;28;20022;-76
2023/04/28 08:15:17;;;;;;;0.60;0.60;;;13.00;97.40;;;;;;5015878;28;20079;-76
2023/04/28 08:17:43;;;;;;;0.65;0.55;;;13.10;97.50;;;;;;4998542;28;20045;-77
2023/04/28 08:20:09;;;;;;;0.73;0.40;;;13.20;97.70;;;;;;4998594;28;20022;-76
2023/04/28 08:22:35;;;;;;;0.40;0.40;;;13.30;97.70;;;;;;5016039;28;20018;-77
2023/04/28 08:25:00;;;;;;;0.52;0.52;;;13.50;97.60;;;;;;5027439;28;20044;-76
2023/04/28 08:27:26;;;;;;;0.52;0.52;;;13.60;97.30;;;;;;5037043;28;20175;-77
2023/04/28 08:29:52;;;;;;;0.40;0.40;;;13.60;97.20;;;;;;5039618;28;20025;-77
2023/04/28 08:32:18;;;;;;;0.43;0.43;;;13.60;97.30;;;;;;5021162;28;20116;-78
2023/04/28 08:34:43;;;;;;;0.60;0.60;;;13.50;97.30;;;;;;5017243;28;20063;-76
2023/04/28 08:37:09;;;;;;;0.93;0.60;;;13.30;97.40;;;;;;5018750;28;20029;-77
2023/04/28 08:39:35;;;;;;;1.10;1.00;;;13.10;97.80;;;;;;5018432;28;20018;-77
2023/04/28 08:42:04;;;;;;;0.75;0.70;;;12.90;98.00;;;;;;5024434;28;20060;-76
2023/04/28 08:44:38;;;;;;;0.60;0.60;;;12.80;98.70;;;;;;5014006;28;20026;-77
2023/04/28 08:47:13;;;;;;;2.00;0.52;;;12.70;99.20;;;;;;5038134;28;20026;-77
2023/04/28 08:49:40;;;;;;;0.52;0.47;;;12.70;99.50;;;;;;5037592;28;20419;-77
2023/04/28 08:52:11;;;;;;;0.68;0.50;;;12.70;99.70;;;;;;5040173;28;20037;-77
2023/04/28 08:54:39;;;;;;;0.77;0.60;;;12.70;99.90;;;;;;5006278;28;20376;-77
2023/04/28 08:57:07;;;;;;;0.93;0.55;;;12.80;99.80;;;;;;5037607;28;20029;-77
2023/04/28 08:59:34;;;;;;;1.23;0.60;;;12.80;99.70;;;;;;5038146;28;20025;-78
2023/04/28 09:02:00;;;;;;;0.63;0.50;;;12.90;99.70;;;;;;5044218;28;20033;-76
2023/04/28 09:04:25;;;;;;;0.40;0.40;;;13.00;99.70;;;;;;5032816;28;20079;-77
2023/04/28 09:06:51;;;;;;;0.40;0.40;;;13.00;99.50;;;;;;5030130;28;20073;-78
2023/04/28 09:09:28;;;;;;;0.50;0.50;;;13.10;99.60;;;;;;5025021;28;20057;-77
2023/04/28 09:12:00;;;;;;;0.82;0.63;;;13.20;99.40;;;;;;5024313;28;20049;-77
2023/04/28 09:14:26;;;;;;;;;;;13.20;99.50;;;;;;5003946;28;20037;-77
2023/04/28 09:16:52;;;;;;;0.85;0.45;;;13.30;99.70;;;;;;5020834;28;19959;-77
2023/04/28 09:19:19;;;;;;;0.60;0.40;;;13.50;99.30;;;;;;5005841;28;20034;-77
2023/04/28 09:21:50;;;;;;;0.43;0.43;;;13.60;99.20;;;;;;5021449;28;20033;-77
2023/04/28 09:24:27;;;;;;;0.40;0.40;;;13.60;99.00;;;;;;5023174;28;20048;-78
2023/04/28 09:26:53;;;;;;;0.77;0.45;;;13.60;99.00;;;;;;5010569;28;20033;-78
2023/04/28 09:29:19;;;;;;;1.17;0.45;;;13.60;98.90;;;;;;5019658;28;20022;-78
2023/04/28 09:31:46;;;;;;;0.73;0.40;;;13.50;98.90;;;;;;5051174;28;20045;-77
2023/04/28 09:34:12;;;;;;;1.10;0.70;;;13.30;99.20;;;;;;5045562;28;20013;-77
2023/04/28 09:36:37;;;;;;;0.70;0.70;;;13.20;99.30;;;;;;5022501;28;20044;-77
2023/04/28 09:39:03;;;;;;;0.50;0.50;;;13.10;99.70;;;;;;5009825;28;20018;-78
2023/04/28 09:41:39;;;;;;;1.02;0.50;;;13.00;99.90;;;;;;5032600;28;20494;-78
2023/04/28 09:44:17;;;;;;;0.85;0.70;;;12.90;99.90;;;;;;5031157;28;20030;-79
2023/04/28 09:46:44;;;;;;;0.47;0.47;;;12.90;99.90;;;;;;5025832;28;20026;-78
2023/04/28 09:49:10;;;;;;;0.60;0.60;;;12.80;99.90;;;;;;5029901;28;20037;-78
2023/04/28 09:51:39;;;;;;;0.60;0.50;;;12.60;99.90;;;;;;5033727;28;20086;-78
2023/04/28 09:54:05;;;;;;;0.50;0.50;;;12.50;99.90;;;;;;5026262;28;20025;-78
2023/04/28 09:56:37;;;;;;;0.93;0.60;;;12.60;99.90;;;;;;5020588;28;20017;-79
2023/04/28 09:59:03;;;;;;;0.40;0.40;;;12.70;99.90;;;;;;5025836;28;20053;-77
2023/04/28 10:01:37;;;;;;;0.40;0.40;;;12.80;99.90;;;;;;5022376;28;20461;-78
2023/04/28 10:04:05;;;;;;;0.70;0.52;;;12.90;99.90;;;;;;5029856;28;20404;-78
2023/04/28 10:06:35;;;;;;;0.50;0.40;;;12.90;99.90;;;;;;5022874;28;20393;-78
2023/04/28 10:09:01;;;;;;;0.30;0.30;;;13.00;99.90;;;;;;5041647;28;20026;-78
2023/04/28 10:11:27;;;;;;;1.35;0.30;;;13.00;99.90;;;;;;5022001;28;20030;-78
2023/04/28 10:13:53;;;;;;;0.50;0.50;;;13.10;99.90;;;;;;5020265;28;20021;-78
2023/04/28 10:16:19;;;;;;;0.50;0.50;;;13.10;99.90;;;;;;5027445;28;20035;-78
2023/04/28 10:18:45;;;;;;;0.47;0.47;;;13.10;99.90;;;;;;5051667;28;20156;-78
2023/04/28 10:21:16;;;;;;;0.40;0.40;;;13.10;99.90;;;;;;5051427;28;20033;-78
2023/04/28 10:24:08;;;;;;;0.77;0.32;;;13.00;99.90;;;;;;5042655;28;20061;-77
2023/04/28 10:26:56;;;;;;;0.63;0.30;;;12.90;99.90;;;;;;5033918;28;20105;-79
2023/04/28 10:29:25;;;;;;;0.80;0.40;;;12.80;99.90;;;;;;5024135;28;20037;-79
2023/04/28 10:32:29;;;;;;;1.13;0.35;;;12.70;99.90;;;;;;5023654;28;20034;-79
2023/04/28 10:35:21;;;;;;;1.20;0.60;;;12.60;99.90;;;;;;5026413;28;20033;-79
2023/04/28 10:38:16;;;;;;;0.43;0.43;;;12.50;99.90;;;;;;5036991;28;20040;-79
2023/04/28 10:40:59;;;;;;;0.60;0.50;;;12.50;99.90;;;;;;5047190;28;20659;-80
2023/04/28 10:43:29;;;;;;;0.40;0.40;;;12.60;99.90;;;;;;5025327;28;20025;-79
2023/04/28 10:45:59;;;;;;;1.40;0.50;;;12.60;99.90;;;;;;5043979;28;20425;-79
2023/04/28 10:48:25;;;;;;;0.50;0.50;;;12.60;99.90;;;;;;5031534;28;20040;-78
2023/04/28 10:51:03;;;;;;;0.52;0.50;;;12.60;99.90;;;;;;5025121;28;20033;-78
2023/04/28 10:53:44;;;;;;;0.50;0.50;;;12.60;99.90;;;;;;5020804;28;20069;-79
2023/04/28 10:56:15;;;;;;;0.60;0.30;;;12.60;99.90;;;;;;5027265;28;20094;-80
2023/04/28 10:58:44;;;;;;;0.40;0.40;;;12.70;99.90;;;;;;5040123;28;20029;-78
2023/04/28 11:01:36;;;;;;;0.28;0.28;;;12.70;99.90;;;;;;5043523;28;20474;-78
2023/04/28 11:04:09;;;;;;;1.20;0.77;;;12.70;99.90;;;;;;5025779;28;20041;-79
2023/04/28 11:06:45;;;;;;;0.80;0.60;;;12.70;99.90;;;;;;5043624;28;20264;-78
2023/04/28 11:09:11;;;;;;;1.05;0.68;;;12.80;99.90;;;;;;5033556;28;20033;-79
2023/04/28 11:11:38;;;;;;;0.45;0.45;;;12.90;99.90;;;;;;5024997;28;20030;-78
2023/04/28 11:14:17;;;;;;;0.75;0.35;;;13.00;99.90;;;;;;5041592;28;20026;-78
2023/04/28 11:17:10;;;;;;;0.50;0.50;;;13.00;99.90;;;;;;5045325;28;20034;-77
2023/04/28 11:19:38;;;;;;;0.30;0.30;;;13.00;99.90;;;;;;5023634;28;20045;-78
2023/04/28 11:22:15;;;;;;;0.77;0.60;;;13.10;99.90;;;;;;5030151;28;20112;-78
2023/04/28 11:25:01;;;;;;;0.85;0.40;;;13.00;99.90;;;;;;5047117;28;20025;-77
2023/04/28 11:27:28;;;;;;;0.30;0.30;;;13.00;99.90;;;;;;5053868;28;20413;-78
2023/04/28 11:29:54;;;;;;;0.95;0.28;;;13.00;99.90;;;;;;5053193;28;20025;-79
2023/04/28 11:32:30;;;;;;;1.08;0.30;;;13.00;99.90;;;;;;5052521;28;20025;-79
2023/04/28 11:34:56;;;;;;;0.52;0.40;;;12.90;99.90;;;;;;5052869;28;20022;-79
2023/04/28 11:37:25;;;;;;;0.40;0.40;;;12.90;99.90;;;;;;5049927;28;20032;-79
2023/04/28 11:39:53;;;;;;;0.57;0.50;;;13.00;99.90;;;;;;5040669;28;20046;-79
2023/04/28 11:42:19;;;;;;;1.48;0.50;;;13.00;99.90;;;;;;5046659;28;20033;-78
2023/04/28 11:44:52;;;;;;;0.30;0.30;;;13.00;99.90;;;;;;5047614;28;20033;-79
2023/04/28 11:47:32;;;;;;;1.08;0.30;;;13.10;99.90;;;;;;5034989;28;20120;-78
2023/04/28 11:49:58;;;;;;;0.63;0.40;;;13.20;99.90;;;;;;5044513;28;20123;-78
2023/04/28 11:52:26;;;;;;;0.40;0.40;;;13.30;99.90;;;;;;5028583;28;20409;-78
2023/04/28 11:54:56;;;;;;;0.30;0.30;;;13.40;99.90;;;;;;5041917;28;20021;-79
2023/04/28 11:57:22;;;;;;;0.20;0.20;;;13.50;99.90;;;;;;5025023;28;20072;-78
2023/04/28 11:59:49;;;;;;;0.32;0.25;;;13.50;99.90;;;;;;5042439;28;20033;-77
2023/04/28 12:02:16;;;;;;;0.30;0.30;;;13.50;99.90;;;;;;5043166;28;20244;-79
2023/04/28 12:04:43;;;;;;;0.40;0.40;;;13.50;99.90;;;;;;5043605;28;20029;-78
2023/04/28 12:07:13;;;;;;;0.70;0.40;;;13.60;99.90;;;;;;5045341;28;20033;-78
2023/04/28 12:09:41;;;;;;;0.30;0.30;;;13.60;99.90;;;;;;5026771;28;20029;-78
2023/04/28 12:12:11;;;;;;;0.50;0.40;;;13.60;99.90;;;;;;5042809;28;20494;-79
2023/04/28 12:15:13;;;;;;;0.82;0.40;;;13.60;99.90;;;;;;5042131;28;20084;-78
2023/04/28 12:17:40;;;;;;;2.00;1.05;;;13.60;99.90;;;;;;4961045;29;20027;-78
2023/04/28 12:20:11;;;;;;;0.68;0.68;;;13.60;99.90;;;;;;5027885;28;20048;-77
2023/04/28 12:22:49;;;;;;;1.98;1.25;;;13.70;99.90;;;;;;5038736;28;20024;-79
2023/04/28 12:25:16;;;;;;;0.90;0.88;;;13.90;99.90;;;;;;5047073;28;20009;-79
2023/04/28 12:28:02;;;;;;;0.93;0.93;;;14.10;99.90;;;;;;5045962;28;20029;-78
2023/04/28 12:30:30;;;;;;;0.47;0.45;;;14.50;99.90;;;;;;5033099;28;20035;-78
2023/04/28 12:32:56;;;;;;;0.35;0.32;;;14.70;99.90;;;;;;5046005;28;20014;-79
2023/04/28 12:35:24;;;;;;;0.43;0.43;;;14.80;99.90;;;;;;5042712;28;20022;-78
2023/04/28 12:37:50;;;;;;;1.15;0.68;;;14.90;99.90;;;;;;5042997;28;20386;-78
2023/04/28 12:40:15;;;;;;;0.60;0.47;;;15.10;99.90;;;;;;5047791;28;20022;-79
2023/04/28 12:42:41;;;;;;;1.42;0.70;;;15.20;99.90;;;;;;5043717;28;20034;-79
2023/04/28 12:45:10;;;;;;;0.95;0.93;;;15.20;99.90;;;;;;5036872;28;20051;-78
2023/04/28 12:47:37;;;;;;;0.60;0.60;;;15.20;99.90;;;;;;5036692;28;20036;-78
2023/04/28 12:50:03;;;;;;;0.93;0.57;;;15.10;99.90;;;;;;5022081;28;20144;-78
2023/04/28 12:52:32;;;;;;;0.60;0.50;;;15.00;99.90;;;;;;5017386;28;20505;-77